KGUP

Gallup Municipal Airport

Gallup, New Mexico, USA
METAR KGUP 171353Z AUTO 00000KT 10SM BKN110 M07/M11 A3027 RMK AO2 SLP284 T10671106
Observed Flight Rules
Dec-17 @ 13:53 UTC (58 minutes ago) Visual Flight Rules
Visibility Clouds
10 miles
  • Broken at 11,000' AGL
Temperatures Readings
Current -7°C / 19°F
Dewpoint -11°C / 12°F
Humidity 73%
Altimeter 30.27" Hg
Pressure 1028.4 hPa
Elevation 1971
METAR KGUP 171353Z AUTO 00000KT 10SM BKN110 M07/M11 A3027 RMK AO2 SLP284 T10671106
Observed Flight Rules
Dec-17 @ 13:53 UTC
(58 minutes ago)
VFR
Clouds
  • Broken at 11,000' AGL
Temperature Dewpoint
-7°C / 19°F -11°C / 12°F
Humidity Altimeter Pressure
73% 30.27" Hg 1028.4 hPa